sensor_id;sensor_type;location;lat;lon;timestamp;P1;durP1;ratioP1;P2;durP2;ratioP2
44120;SDS011;29783;52.504;13.478;2023-03-14T00:00:35;0.82;;;0.60;;
44120;SDS011;29783;52.504;13.478;2023-03-14T00:03:01;3.55;;;0.80;;
44120;SDS011;29783;52.504;13.478;2023-03-14T00:05:27;1.90;;;0.60;;
44120;SDS011;29783;52.504;13.478;2023-03-14T00:07:52;1.58;;;0.70;;
44120;SDS011;29783;52.504;13.478;2023-03-14T00:10:19;2.25;;;0.60;;
44120;SDS011;29783;52.504;13.478;2023-03-14T00:12:45;1.27;;;0.50;;
44120;SDS011;29783;52.504;13.478;2023-03-14T00:15:11;1.73;;;0.73;;
44120;SDS011;29783;52.504;13.478;2023-03-14T00:17:38;2.22;;;0.70;;
44120;SDS011;29783;52.504;13.478;2023-03-14T00:20:05;0.93;;;0.60;;
44120;SDS011;29783;52.504;13.478;2023-03-14T00:22:35;1.52;;;0.80;;
44120;SDS011;29783;52.504;13.478;2023-03-14T00:25:01;1.75;;;0.88;;
44120;SDS011;29783;52.504;13.478;2023-03-14T00:27:32;3.28;;;0.52;;
44120;SDS011;29783;52.504;13.478;2023-03-14T00:29:58;1.00;;;0.68;;
44120;SDS011;29783;52.504;13.478;2023-03-14T00:32:23;1.13;;;0.60;;
44120;SDS011;29783;52.504;13.478;2023-03-14T00:34:49;1.50;;;0.50;;
44120;SDS011;29783;52.504;13.478;2023-03-14T00:37:15;1.25;;;0.80;;
44120;SDS011;29783;52.504;13.478;2023-03-14T00:39:41;1.85;;;0.55;;
44120;SDS011;29783;52.504;13.478;2023-03-14T00:42:07;3.30;;;0.45;;
44120;SDS011;29783;52.504;13.478;2023-03-14T00:44:32;1.48;;;0.60;;
44120;SDS011;29783;52.504;13.478;2023-03-14T00:46:58;1.40;;;0.60;;
44120;SDS011;29783;52.504;13.478;2023-03-14T00:49:24;1.13;;;0.65;;
44120;SDS011;29783;52.504;13.478;2023-03-14T00:51:50;3.40;;;0.70;;
44120;SDS011;29783;52.504;13.478;2023-03-14T00:54:17;3.05;;;0.82;;
44120;SDS011;29783;52.504;13.478;2023-03-14T00:56:47;0.93;;;0.50;;
44120;SDS011;29783;52.504;13.478;2023-03-14T00:59:13;1.88;;;0.90;;
44120;SDS011;29783;52.504;13.478;2023-03-14T01:01:40;1.80;;;0.55;;
44120;SDS011;29783;52.504;13.478;2023-03-14T01:04:06;4.55;;;0.77;;
44120;SDS011;29783;52.504;13.478;2023-03-14T01:06:32;1.17;;;0.57;;
44120;SDS011;29783;52.504;13.478;2023-03-14T01:08:58;1.35;;;0.50;;
44120;SDS011;29783;52.504;13.478;2023-03-14T01:11:25;3.05;;;0.95;;
44120;SDS011;29783;52.504;13.478;2023-03-14T01:13:58;4.53;;;0.82;;
44120;SDS011;29783;52.504;13.478;2023-03-14T01:16:24;2.70;;;0.70;;
44120;SDS011;29783;52.504;13.478;2023-03-14T01:18:52;1.35;;;0.70;;
44120;SDS011;29783;52.504;13.478;2023-03-14T01:21:22;1.58;;;0.68;;
44120;SDS011;29783;52.504;13.478;2023-03-14T01:23:52;2.08;;;0.80;;
44120;SDS011;29783;52.504;13.478;2023-03-14T01:26:20;4.72;;;2.25;;
44120;SDS011;29783;52.504;13.478;2023-03-14T01:28:48;2.55;;;0.68;;
44120;SDS011;29783;52.504;13.478;2023-03-14T01:31:15;1.77;;;0.60;;
44120;SDS011;29783;52.504;13.478;2023-03-14T01:33:42;1.35;;;0.70;;
44120;SDS011;29783;52.504;13.478;2023-03-14T01:36:08;1.40;;;0.75;;
44120;SDS011;29783;52.504;13.478;2023-03-14T01:38:36;0.85;;;0.57;;
44120;SDS011;29783;52.504;13.478;2023-03-14T01:41:03;1.63;;;0.40;;
44120;SDS011;29783;52.504;13.478;2023-03-14T01:43:30;1.90;;;0.80;;
44120;SDS011;29783;52.504;13.478;2023-03-14T01:51:17;0.90;;;0.60;;
44120;SDS011;29783;52.504;13.478;2023-03-14T01:56:41;0.70;;;0.70;;
44120;SDS011;29783;52.504;13.478;2023-03-14T01:59:09;0.73;;;0.50;;
44120;SDS011;29783;52.504;13.478;2023-03-14T02:01:36;0.88;;;0.50;;
44120;SDS011;29783;52.504;13.478;2023-03-14T02:04:03;2.50;;;0.73;;
44120;SDS011;29783;52.504;13.478;2023-03-14T02:06:42;3.25;;;0.60;;
44120;SDS011;29783;52.504;13.478;2023-03-14T02:09:14;2.97;;;0.60;;
44120;SDS011;29783;52.504;13.478;2023-03-14T02:11:40;0.93;;;0.70;;
44120;SDS011;29783;52.504;13.478;2023-03-14T02:14:06;0.80;;;0.60;;
44120;SDS011;29783;52.504;13.478;2023-03-14T02:16:35;0.85;;;0.60;;
44120;SDS011;29783;52.504;13.478;2023-03-14T02:19:00;1.08;;;0.50;;
44120;SDS011;29783;52.504;13.478;2023-03-14T02:29:50;1.33;;;0.50;;
44120;SDS011;29783;52.504;13.478;2023-03-14T02:32:22;0.77;;;0.35;;
44120;SDS011;29783;52.504;13.478;2023-03-14T02:34:51;1.23;;;0.68;;
44120;SDS011;29783;52.504;13.478;2023-03-14T02:37:19;0.80;;;0.43;;
44120;SDS011;29783;52.504;13.478;2023-03-14T02:39:48;1.17;;;0.68;;
44120;SDS011;29783;52.504;13.478;2023-03-14T02:42:14;2.08;;;0.50;;
44120;SDS011;29783;52.504;13.478;2023-03-14T02:44:48;0.95;;;0.57;;
44120;SDS011;29783;52.504;13.478;2023-03-14T02:47:16;2.80;;;0.60;;
44120;SDS011;29783;52.504;13.478;2023-03-14T02:49:46;0.50;;;0.50;;
44120;SDS011;29783;52.504;13.478;2023-03-14T02:52:12;2.88;;;0.70;;
44120;SDS011;29783;52.504;13.478;2023-03-14T02:54:38;4.75;;;0.55;;
44120;SDS011;29783;52.504;13.478;2023-03-14T02:57:04;0.93;;;0.60;;
44120;SDS011;29783;52.504;13.478;2023-03-14T02:59:29;1.40;;;0.70;;
44120;SDS011;29783;52.504;13.478;2023-03-14T03:01:55;0.38;;;0.30;;
44120;SDS011;29783;52.504;13.478;2023-03-14T03:04:21;3.08;;;0.50;;
44120;SDS011;29783;52.504;13.478;2023-03-14T03:06:47;0.90;;;0.50;;
44120;SDS011;29783;52.504;13.478;2023-03-14T03:09:12;0.63;;;0.50;;
44120;SDS011;29783;52.504;13.478;2023-03-14T03:11:38;1.42;;;0.57;;
44120;SDS011;29783;52.504;13.478;2023-03-14T03:14:04;1.13;;;0.50;;
44120;SDS011;29783;52.504;13.478;2023-03-14T03:16:39;0.60;;;0.50;;
44120;SDS011;29783;52.504;13.478;2023-03-14T03:19:05;1.27;;;0.50;;
44120;SDS011;29783;52.504;13.478;2023-03-14T03:21:31;0.65;;;0.50;;
44120;SDS011;29783;52.504;13.478;2023-03-14T03:23:56;1.45;;;0.70;;
44120;SDS011;29783;52.504;13.478;2023-03-14T03:26:22;1.17;;;0.50;;
44120;SDS011;29783;52.504;13.478;2023-03-14T03:28:58;3.42;;;0.70;;
44120;SDS011;29783;52.504;13.478;2023-03-14T03:31:23;1.10;;;0.50;;
44120;SDS011;29783;52.504;13.478;2023-03-14T03:33:49;0.90;;;0.50;;
44120;SDS011;29783;52.504;13.478;2023-03-14T03:36:15;0.90;;;0.50;;
44120;SDS011;29783;52.504;13.478;2023-03-14T03:38:46;0.95;;;0.60;;
44120;SDS011;29783;52.504;13.478;2023-03-14T03:41:12;1.52;;;0.57;;
44120;SDS011;29783;52.504;13.478;2023-03-14T03:43:37;0.75;;;0.55;;
44120;SDS011;29783;52.504;13.478;2023-03-14T03:46:04;0.73;;;0.40;;
44120;SDS011;29783;52.504;13.478;2023-03-14T03:48:31;2.33;;;0.57;;
44120;SDS011;29783;52.504;13.478;2023-03-14T03:50:56;4.78;;;0.50;;
44120;SDS011;29783;52.504;13.478;2023-03-14T03:53:22;3.35;;;0.60;;
44120;SDS011;29783;52.504;13.478;2023-03-14T03:55:48;1.60;;;0.60;;
44120;SDS011;29783;52.504;13.478;2023-03-14T03:58:14;1.13;;;0.57;;
44120;SDS011;29783;52.504;13.478;2023-03-14T04:00:39;2.88;;;0.47;;
44120;SDS011;29783;52.504;13.478;2023-03-14T04:03:05;1.83;;;0.60;;
44120;SDS011;29783;52.504;13.478;2023-03-14T04:05:31;0.73;;;0.50;;
44120;SDS011;29783;52.504;13.478;2023-03-14T04:07:57;2.03;;;0.70;;
44120;SDS011;29783;52.504;13.478;2023-03-14T04:10:23;0.75;;;0.40;;
44120;SDS011;29783;52.504;13.478;2023-03-14T04:12:48;1.17;;;0.68;;
44120;SDS011;29783;52.504;13.478;2023-03-14T04:15:14;1.35;;;0.60;;
44120;SDS011;29783;52.504;13.478;2023-03-14T04:17:40;0.90;;;0.47;;
44120;SDS011;29783;52.504;13.478;2023-03-14T04:20:06;0.73;;;0.50;;
44120;SDS011;29783;52.504;13.478;2023-03-14T04:22:35;1.30;;;0.60;;
44120;SDS011;29783;52.504;13.478;2023-03-14T04:25:02;2.38;;;0.40;;
44120;SDS011;29783;52.504;13.478;2023-03-14T04:27:28;1.08;;;0.63;;
44120;SDS011;29783;52.504;13.478;2023-03-14T04:29:54;2.42;;;0.68;;
44120;SDS011;29783;52.504;13.478;2023-03-14T04:32:20;0.95;;;0.63;;
44120;SDS011;29783;52.504;13.478;2023-03-14T04:34:45;0.38;;;0.38;;
44120;SDS011;29783;52.504;13.478;2023-03-14T04:37:11;1.50;;;0.50;;
44120;SDS011;29783;52.504;13.478;2023-03-14T04:39:37;0.75;;;0.68;;
44120;SDS011;29783;52.504;13.478;2023-03-14T04:42:03;1.80;;;0.50;;
44120;SDS011;29783;52.504;13.478;2023-03-14T04:44:29;1.27;;;0.60;;
44120;SDS011;29783;52.504;13.478;2023-03-14T04:46:54;1.33;;;0.60;;
44120;SDS011;29783;52.504;13.478;2023-03-14T04:49:20;1.67;;;0.60;;
44120;SDS011;29783;52.504;13.478;2023-03-14T04:51:46;1.02;;;0.57;;
44120;SDS011;29783;52.504;13.478;2023-03-14T04:54:12;3.33;;;0.70;;
44120;SDS011;29783;52.504;13.478;2023-03-14T04:56:38;1.05;;;0.60;;
44120;SDS011;29783;52.504;13.478;2023-03-14T04:59:04;1.42;;;0.57;;
44120;SDS011;29783;52.504;13.478;2023-03-14T05:01:30;1.48;;;0.52;;
44120;SDS011;29783;52.504;13.478;2023-03-14T05:03:56;1.67;;;0.50;;
44120;SDS011;29783;52.504;13.478;2023-03-14T05:06:21;1.85;;;0.60;;
44120;SDS011;29783;52.504;13.478;2023-03-14T05:08:47;0.93;;;0.50;;
44120;SDS011;29783;52.504;13.478;2023-03-14T05:11:13;2.28;;;0.82;;
44120;SDS011;29783;52.504;13.478;2023-03-14T05:13:39;1.33;;;0.82;;
44120;SDS011;29783;52.504;13.478;2023-03-14T05:16:09;0.77;;;0.30;;
44120;SDS011;29783;52.504;13.478;2023-03-14T05:18:35;2.30;;;0.60;;
44120;SDS011;29783;52.504;13.478;2023-03-14T05:21:01;0.95;;;0.63;;
44120;SDS011;29783;52.504;13.478;2023-03-14T05:23:27;1.08;;;0.55;;
44120;SDS011;29783;52.504;13.478;2023-03-14T05:25:53;1.65;;;0.60;;
44120;SDS011;29783;52.504;13.478;2023-03-14T05:28:19;0.40;;;0.40;;
44120;SDS011;29783;52.504;13.478;2023-03-14T05:30:45;1.77;;;0.52;;
44120;SDS011;29783;52.504;13.478;2023-03-14T05:33:11;1.15;;;0.40;;
44120;SDS011;29783;52.504;13.478;2023-03-14T05:35:37;1.35;;;0.73;;
44120;SDS011;29783;52.504;13.478;2023-03-14T05:38:03;3.13;;;0.60;;
44120;SDS011;29783;52.504;13.478;2023-03-14T05:40:29;2.55;;;0.70;;
44120;SDS011;29783;52.504;13.478;2023-03-14T05:45:37;2.40;;;0.85;;
44120;SDS011;29783;52.504;13.478;2023-03-14T05:48:02;2.20;;;0.77;;
44120;SDS011;29783;52.504;13.478;2023-03-14T05:50:29;1.10;;;0.63;;
44120;SDS011;29783;52.504;13.478;2023-03-14T05:52:55;1.63;;;0.52;;
44120;SDS011;29783;52.504;13.478;2023-03-14T05:55:20;0.95;;;0.63;;
44120;SDS011;29783;52.504;13.478;2023-03-14T05:57:46;2.03;;;0.60;;
44120;SDS011;29783;52.504;13.478;2023-03-14T06:00:12;1.27;;;0.50;;
44120;SDS011;29783;52.504;13.478;2023-03-14T06:02:38;2.78;;;0.68;;
44120;SDS011;29783;52.504;13.478;2023-03-14T06:05:04;1.67;;;0.60;;
44120;SDS011;29783;52.504;13.478;2023-03-14T06:07:30;1.00;;;0.65;;
44120;SDS011;29783;52.504;13.478;2023-03-14T06:09:56;1.70;;;0.63;;
44120;SDS011;29783;52.504;13.478;2023-03-14T06:12:23;2.58;;;0.73;;
44120;SDS011;29783;52.504;13.478;2023-03-14T06:14:49;1.33;;;0.65;;
44120;SDS011;29783;52.504;13.478;2023-03-14T06:17:15;4.25;;;0.93;;
44120;SDS011;29783;52.504;13.478;2023-03-14T06:19:41;1.38;;;0.60;;
44120;SDS011;29783;52.504;13.478;2023-03-14T06:22:07;3.13;;;0.70;;
44120;SDS011;29783;52.504;13.478;2023-03-14T06:24:32;3.03;;;0.70;;
44120;SDS011;29783;52.504;13.478;2023-03-14T06:30:06;2.15;;;0.70;;
44120;SDS011;29783;52.504;13.478;2023-03-14T06:32:33;1.48;;;0.70;;
44120;SDS011;29783;52.504;13.478;2023-03-14T06:34:59;2.40;;;0.88;;
44120;SDS011;29783;52.504;13.478;2023-03-14T06:37:26;2.55;;;0.70;;
44120;SDS011;29783;52.504;13.478;2023-03-14T06:39:56;4.80;;;0.70;;
44120;SDS011;29783;52.504;13.478;2023-03-14T06:42:25;2.63;;;0.60;;
44120;SDS011;29783;52.504;13.478;2023-03-14T06:44:51;6.07;;;0.70;;
44120;SDS011;29783;52.504;13.478;2023-03-14T06:47:16;3.90;;;0.98;;
44120;SDS011;29783;52.504;13.478;2023-03-14T06:49:42;2.47;;;0.70;;
44120;SDS011;29783;52.504;13.478;2023-03-14T06:52:08;6.20;;;0.80;;
44120;SDS011;29783;52.504;13.478;2023-03-14T06:54:34;3.05;;;0.82;;
44120;SDS011;29783;52.504;13.478;2023-03-14T06:57:00;4.53;;;0.80;;
44120;SDS011;29783;52.504;13.478;2023-03-14T06:59:26;9.43;;;1.10;;
44120;SDS011;29783;52.504;13.478;2023-03-14T07:01:52;4.18;;;0.90;;
44120;SDS011;29783;52.504;13.478;2023-03-14T07:04:18;3.15;;;0.73;;
44120;SDS011;29783;52.504;13.478;2023-03-14T07:06:52;4.25;;;0.65;;
44120;SDS011;29783;52.504;13.478;2023-03-14T07:09:55;3.60;;;0.93;;
44120;SDS011;29783;52.504;13.478;2023-03-14T07:12:40;4.15;;;0.80;;
44120;SDS011;29783;52.504;13.478;2023-03-14T07:15:06;2.00;;;0.63;;
44120;SDS011;29783;52.504;13.478;2023-03-14T07:17:33;6.15;;;1.17;;
44120;SDS011;29783;52.504;13.478;2023-03-14T07:19:59;4.35;;;0.93;;
44120;SDS011;29783;52.504;13.478;2023-03-14T07:22:34;1.25;;;0.70;;
44120;SDS011;29783;52.504;13.478;2023-03-14T07:25:00;5.10;;;0.80;;
44120;SDS011;29783;52.504;13.478;2023-03-14T07:27:26;4.25;;;0.85;;
44120;SDS011;29783;52.504;13.478;2023-03-14T07:29:51;2.50;;;1.10;;
44120;SDS011;29783;52.504;13.478;2023-03-14T07:33:00;2.88;;;1.10;;
44120;SDS011;29783;52.504;13.478;2023-03-14T07:35:15;2.45;;;0.98;;
44120;SDS011;29783;52.504;13.478;2023-03-14T07:37:44;4.63;;;0.93;;
44120;SDS011;29783;52.504;13.478;2023-03-14T07:40:22;6.18;;;0.85;;
44120;SDS011;29783;52.504;13.478;2023-03-14T07:42:48;4.65;;;0.77;;
44120;SDS011;29783;52.504;13.478;2023-03-14T07:45:14;4.55;;;0.90;;
44120;SDS011;29783;52.504;13.478;2023-03-14T07:47:41;6.80;;;1.25;;
44120;SDS011;29783;52.504;13.478;2023-03-14T07:50:06;5.13;;;0.80;;
44120;SDS011;29783;52.504;13.478;2023-03-14T07:59:18;8.20;;;1.05;;
44120;SDS011;29783;52.504;13.478;2023-03-14T08:01:44;4.97;;;1.05;;
44120;SDS011;29783;52.504;13.478;2023-03-14T08:04:10;3.22;;;0.70;;
44120;SDS011;29783;52.504;13.478;2023-03-14T08:06:36;5.30;;;0.77;;
44120;SDS011;29783;52.504;13.478;2023-03-14T08:15:34;3.95;;;1.00;;
44120;SDS011;29783;52.504;13.478;2023-03-14T08:18:00;4.07;;;1.13;;
44120;SDS011;29783;52.504;13.478;2023-03-14T08:20:27;7.15;;;1.10;;
44120;SDS011;29783;52.504;13.478;2023-03-14T08:22:55;4.57;;;0.90;;
44120;SDS011;29783;52.504;13.478;2023-03-14T08:25:22;8.98;;;1.13;;
44120;SDS011;29783;52.504;13.478;2023-03-14T08:27:48;2.42;;;0.88;;
44120;SDS011;29783;52.504;13.478;2023-03-14T08:30:15;3.92;;;1.05;;
44120;SDS011;29783;52.504;13.478;2023-03-14T08:32:42;7.65;;;1.65;;
44120;SDS011;29783;52.504;13.478;2023-03-14T08:35:08;4.25;;;1.33;;
44120;SDS011;29783;52.504;13.478;2023-03-14T08:37:35;9.52;;;1.50;;
44120;SDS011;29783;52.504;13.478;2023-03-14T08:40:01;5.05;;;1.40;;
44120;SDS011;29783;52.504;13.478;2023-03-14T08:42:32;15.45;;;1.40;;
44120;SDS011;29783;52.504;13.478;2023-03-14T08:44:58;5.35;;;1.10;;
44120;SDS011;29783;52.504;13.478;2023-03-14T08:47:25;9.00;;;1.52;;
44120;SDS011;29783;52.504;13.478;2023-03-14T08:49:50;7.07;;;1.33;;
44120;SDS011;29783;52.504;13.478;2023-03-14T08:52:16;9.48;;;1.20;;
44120;SDS011;29783;52.504;13.478;2023-03-14T08:54:45;3.90;;;1.23;;
44120;SDS011;29783;52.504;13.478;2023-03-14T08:57:11;6.47;;;1.08;;
44120;SDS011;29783;52.504;13.478;2023-03-14T08:59:38;2.60;;;0.82;;
44120;SDS011;29783;52.504;13.478;2023-03-14T09:02:04;5.63;;;1.20;;
44120;SDS011;29783;52.504;13.478;2023-03-14T09:04:31;16.70;;;1.27;;
44120;SDS011;29783;52.504;13.478;2023-03-14T09:06:57;6.47;;;1.10;;
44120;SDS011;29783;52.504;13.478;2023-03-14T09:09:24;10.63;;;1.00;;
44120;SDS011;29783;52.504;13.478;2023-03-14T09:11:51;8.82;;;1.00;;
44120;SDS011;29783;52.504;13.478;2023-03-14T09:14:17;4.20;;;1.30;;
44120;SDS011;29783;52.504;13.478;2023-03-14T09:16:43;5.32;;;1.10;;
44120;SDS011;29783;52.504;13.478;2023-03-14T09:19:09;4.70;;;1.10;;
44120;SDS011;29783;52.504;13.478;2023-03-14T09:21:54;9.77;;;1.38;;
44120;SDS011;29783;52.504;13.478;2023-03-14T09:25:03;9.73;;;0.88;;
44120;SDS011;29783;52.504;13.478;2023-03-14T09:27:29;3.83;;;1.25;;
44120;SDS011;29783;52.504;13.478;2023-03-14T09:29:55;6.05;;;1.00;;
44120;SDS011;29783;52.504;13.478;2023-03-14T09:32:30;7.40;;;1.35;;
44120;SDS011;29783;52.504;13.478;2023-03-14T09:34:56;5.47;;;1.40;;
44120;SDS011;29783;52.504;13.478;2023-03-14T09:37:22;5.15;;;1.02;;
44120;SDS011;29783;52.504;13.478;2023-03-14T09:39:48;8.30;;;1.63;;
44120;SDS011;29783;52.504;13.478;2023-03-14T09:42:14;5.95;;;1.00;;
44120;SDS011;29783;52.504;13.478;2023-03-14T09:47:18;6.50;;;0.93;;
44120;SDS011;29783;52.504;13.478;2023-03-14T09:49:45;4.85;;;1.10;;
44120;SDS011;29783;52.504;13.478;2023-03-14T09:52:27;9.35;;;1.25;;
44120;SDS011;29783;52.504;13.478;2023-03-14T09:55:04;10.07;;;1.40;;
44120;SDS011;29783;52.504;13.478;2023-03-14T09:57:35;3.05;;;0.60;;
44120;SDS011;29783;52.504;13.478;2023-03-14T10:00:06;11.23;;;1.40;;
44120;SDS011;29783;52.504;13.478;2023-03-14T10:02:47;4.65;;;1.58;;
44120;SDS011;29783;52.504;13.478;2023-03-14T10:05:21;4.13;;;1.08;;
44120;SDS011;29783;52.504;13.478;2023-03-14T10:07:48;11.95;;;1.58;;
44120;SDS011;29783;52.504;13.478;2023-03-14T10:10:22;7.05;;;1.30;;
44120;SDS011;29783;52.504;13.478;2023-03-14T10:13:05;5.43;;;0.90;;
44120;SDS011;29783;52.504;13.478;2023-03-14T10:15:51;8.55;;;0.85;;
44120;SDS011;29783;52.504;13.478;2023-03-14T10:18:25;5.97;;;1.20;;
44120;SDS011;29783;52.504;13.478;2023-03-14T10:21:17;3.95;;;0.75;;
44120;SDS011;29783;52.504;13.478;2023-03-14T10:23:50;5.10;;;1.02;;
44120;SDS011;29783;52.504;13.478;2023-03-14T10:26:37;5.30;;;0.93;;
44120;SDS011;29783;52.504;13.478;2023-03-14T10:29:10;8.32;;;1.13;;
44120;SDS011;29783;52.504;13.478;2023-03-14T10:31:51;4.07;;;1.05;;
44120;SDS011;29783;52.504;13.478;2023-03-14T10:34:26;6.95;;;0.85;;
44120;SDS011;29783;52.504;13.478;2023-03-14T10:36:55;10.02;;;1.30;;
44120;SDS011;29783;52.504;13.478;2023-03-14T10:39:34;6.95;;;1.02;;
44120;SDS011;29783;52.504;13.478;2023-03-14T10:42:14;1.48;;;0.68;;
44120;SDS011;29783;52.504;13.478;2023-03-14T10:45:04;5.28;;;0.90;;
44120;SDS011;29783;52.504;13.478;2023-03-14T10:47:51;2.25;;;0.68;;
44120;SDS011;29783;52.504;13.478;2023-03-14T10:50:27;6.03;;;0.77;;
44120;SDS011;29783;52.504;13.478;2023-03-14T10:52:55;6.03;;;0.90;;
44120;SDS011;29783;52.504;13.478;2023-03-14T10:55:25;4.65;;;0.75;;
44120;SDS011;29783;52.504;13.478;2023-03-14T10:57:51;2.50;;;0.70;;
44120;SDS011;29783;52.504;13.478;2023-03-14T11:00:18;7.18;;;0.60;;
44120;SDS011;29783;52.504;13.478;2023-03-14T11:08:09;4.03;;;0.82;;
44120;SDS011;29783;52.504;13.478;2023-03-14T11:10:40;9.05;;;1.13;;
44120;SDS011;29783;52.504;13.478;2023-03-14T11:13:14;6.20;;;0.80;;
44120;SDS011;29783;52.504;13.478;2023-03-14T11:21:04;2.45;;;0.60;;
44120;SDS011;29783;52.504;13.478;2023-03-14T11:29:02;6.40;;;0.82;;
44120;SDS011;29783;52.504;13.478;2023-03-14T11:32:29;5.38;;;0.60;;
44120;SDS011;29783;52.504;13.478;2023-03-14T11:35:16;3.33;;;0.60;;
44120;SDS011;29783;52.504;13.478;2023-03-14T11:37:53;0.80;;;0.47;;
44120;SDS011;29783;52.504;13.478;2023-03-14T11:40:32;2.03;;;0.60;;
44120;SDS011;29783;52.504;13.478;2023-03-14T11:43:00;2.60;;;0.70;;
44120;SDS011;29783;52.504;13.478;2023-03-14T11:45:42;2.08;;;0.50;;
44120;SDS011;29783;52.504;13.478;2023-03-14T11:50:53;18.88;;;1.88;;
44120;SDS011;29783;52.504;13.478;2023-03-14T11:56:41;3.03;;;0.98;;
44120;SDS011;29783;52.504;13.478;2023-03-14T11:59:21;1.33;;;0.63;;
44120;SDS011;29783;52.504;13.478;2023-03-14T12:02:05;1.92;;;0.50;;
44120;SDS011;29783;52.504;13.478;2023-03-14T12:05:20;2.63;;;0.73;;
44120;SDS011;29783;52.504;13.478;2023-03-14T12:10:40;12.00;;;1.05;;
44120;SDS011;29783;52.504;13.478;2023-03-14T12:13:11;1.90;;;0.68;;
44120;SDS011;29783;52.504;13.478;2023-03-14T12:15:49;2.15;;;0.52;;
44120;SDS011;29783;52.504;13.478;2023-03-14T12:18:26;6.68;;;0.68;;
44120;SDS011;29783;52.504;13.478;2023-03-14T12:20:58;11.80;;;1.30;;
44120;SDS011;29783;52.504;13.478;2023-03-14T12:23:49;5.35;;;0.90;;
44120;SDS011;29783;52.504;13.478;2023-03-14T12:26:19;3.00;;;0.70;;
44120;SDS011;29783;52.504;13.478;2023-03-14T12:28:51;11.15;;;1.17;;
44120;SDS011;29783;52.504;13.478;2023-03-14T12:31:44;8.23;;;1.30;;
44120;SDS011;29783;52.504;13.478;2023-03-14T12:48:10;7.32;;;0.93;;
44120;SDS011;29783;52.504;13.478;2023-03-14T12:50:43;6.70;;;0.77;;
44120;SDS011;29783;52.504;13.478;2023-03-14T13:01:53;2.05;;;0.70;;
44120;SDS011;29783;52.504;13.478;2023-03-14T13:10:26;7.20;;;0.80;;
44120;SDS011;29783;52.504;13.478;2023-03-14T13:12:55;4.03;;;1.13;;
44120;SDS011;29783;52.504;13.478;2023-03-14T13:15:34;7.45;;;0.85;;
44120;SDS011;29783;52.504;13.478;2023-03-14T13:18:17;3.05;;;1.23;;
44120;SDS011;29783;52.504;13.478;2023-03-14T13:20:52;2.65;;;0.65;;
44120;SDS011;29783;52.504;13.478;2023-03-14T13:23:53;5.15;;;0.70;;
44120;SDS011;29783;52.504;13.478;2023-03-14T13:26:25;4.13;;;0.70;;
44120;SDS011;29783;52.504;13.478;2023-03-14T13:28:58;1.77;;;0.80;;
44120;SDS011;29783;52.504;13.478;2023-03-14T13:31:25;2.20;;;1.00;;
44120;SDS011;29783;52.504;13.478;2023-03-14T13:34:01;3.20;;;1.00;;
44120;SDS011;29783;52.504;13.478;2023-03-14T13:36:31;2.50;;;1.10;;
44120;SDS011;29783;52.504;13.478;2023-03-14T13:38:59;2.47;;;1.05;;
44120;SDS011;29783;52.504;13.478;2023-03-14T13:44:39;1.33;;;0.50;;
44120;SDS011;29783;52.504;13.478;2023-03-14T13:47:04;4.22;;;0.65;;
44120;SDS011;29783;52.504;13.478;2023-03-14T13:49:35;0.93;;;0.60;;
44120;SDS011;29783;52.504;13.478;2023-03-14T13:52:03;5.57;;;0.77;;
44120;SDS011;29783;52.504;13.478;2023-03-14T13:54:46;4.07;;;0.55;;
44120;SDS011;29783;52.504;13.478;2023-03-14T13:57:11;1.75;;;0.50;;
44120;SDS011;29783;52.504;13.478;2023-03-14T13:59:37;1.88;;;0.32;;
44120;SDS011;29783;52.504;13.478;2023-03-14T14:02:21;0.50;;;0.28;;
44120;SDS011;29783;52.504;13.478;2023-03-14T14:04:47;1.10;;;0.30;;
44120;SDS011;29783;52.504;13.478;2023-03-14T14:07:15;0.70;;;0.30;;
44120;SDS011;29783;52.504;13.478;2023-03-14T14:09:48;5.90;;;0.40;;
44120;SDS011;29783;52.504;13.478;2023-03-14T14:12:17;1.73;;;0.40;;
44120;SDS011;29783;52.504;13.478;2023-03-14T14:14:51;1.75;;;0.50;;
44120;SDS011;29783;52.504;13.478;2023-03-14T14:17:18;0.63;;;0.30;;
44120;SDS011;29783;52.504;13.478;2023-03-14T14:19:52;2.40;;;0.47;;
44120;SDS011;29783;52.504;13.478;2023-03-14T14:22:21;1.90;;;0.52;;
44120;SDS011;29783;52.504;13.478;2023-03-14T14:24:47;0.70;;;0.40;;
44120;SDS011;29783;52.504;13.478;2023-03-14T14:27:18;3.00;;;0.65;;
44120;SDS011;29783;52.504;13.478;2023-03-14T14:29:57;0.65;;;0.45;;
44120;SDS011;29783;52.504;13.478;2023-03-14T14:32:38;2.42;;;0.40;;
44120;SDS011;29783;52.504;13.478;2023-03-14T14:35:05;3.20;;;0.40;;
44120;SDS011;29783;52.504;13.478;2023-03-14T14:37:40;2.28;;;0.40;;
44120;SDS011;29783;52.504;13.478;2023-03-14T14:40:08;2.25;;;0.70;;
44120;SDS011;29783;52.504;13.478;2023-03-14T14:42:45;2.65;;;0.40;;
44120;SDS011;29783;52.504;13.478;2023-03-14T14:45:13;1.00;;;0.30;;
44120;SDS011;29783;52.504;13.478;2023-03-14T14:47:52;0.95;;;0.32;;
44120;SDS011;29783;52.504;13.478;2023-03-14T14:50:48;0.50;;;0.28;;
44120;SDS011;29783;52.504;13.478;2023-03-14T14:55:50;4.47;;;0.30;;
44120;SDS011;29783;52.504;13.478;2023-03-14T14:58:18;1.25;;;0.38;;
44120;SDS011;29783;52.504;13.478;2023-03-14T15:03:41;2.53;;;0.43;;
44120;SDS011;29783;52.504;13.478;2023-03-14T15:06:08;1.60;;;0.47;;
44120;SDS011;29783;52.504;13.478;2023-03-14T15:08:37;1.77;;;0.52;;
44120;SDS011;29783;52.504;13.478;2023-03-14T15:11:03;1.80;;;0.30;;
44120;SDS011;29783;52.504;13.478;2023-03-14T15:13:29;1.65;;;0.30;;
44120;SDS011;29783;52.504;13.478;2023-03-14T15:15:55;1.63;;;0.40;;
44120;SDS011;29783;52.504;13.478;2023-03-14T15:18:22;2.83;;;0.35;;
44120;SDS011;29783;52.504;13.478;2023-03-14T15:20:50;2.42;;;0.32;;
44120;SDS011;29783;52.504;13.478;2023-03-14T15:23:17;2.15;;;0.60;;
44120;SDS011;29783;52.504;13.478;2023-03-14T15:25:46;12.35;;;0.60;;
44120;SDS011;29783;52.504;13.478;2023-03-14T15:28:13;6.15;;;0.40;;
44120;SDS011;29783;52.504;13.478;2023-03-14T15:30:45;0.90;;;0.28;;
44120;SDS011;29783;52.504;13.478;2023-03-14T15:33:12;5.40;;;0.60;;
44120;SDS011;29783;52.504;13.478;2023-03-14T15:35:38;2.38;;;0.35;;
44120;SDS011;29783;52.504;13.478;2023-03-14T15:38:08;2.15;;;0.60;;
44120;SDS011;29783;52.504;13.478;2023-03-14T15:40:39;1.90;;;0.22;;
44120;SDS011;29783;52.504;13.478;2023-03-14T15:43:05;2.58;;;0.43;;
44120;SDS011;29783;52.504;13.478;2023-03-14T15:45:31;0.47;;;0.30;;
44120;SDS011;29783;52.504;13.478;2023-03-14T15:47:57;1.48;;;0.50;;
44120;SDS011;29783;52.504;13.478;2023-03-14T15:50:23;3.40;;;0.40;;
44120;SDS011;29783;52.504;13.478;2023-03-14T15:52:50;0.20;;;0.20;;
44120;SDS011;29783;52.504;13.478;2023-03-14T15:55:16;0.50;;;0.10;;
44120;SDS011;29783;52.504;13.478;2023-03-14T15:57:43;0.30;;;0.30;;
44120;SDS011;29783;52.504;13.478;2023-03-14T16:00:13;2.47;;;0.43;;
44120;SDS011;29783;52.504;13.478;2023-03-14T16:02:43;1.17;;;0.40;;
44120;SDS011;29783;52.504;13.478;2023-03-14T16:05:10;11.00;;;0.70;;
44120;SDS011;29783;52.504;13.478;2023-03-14T16:07:37;5.68;;;0.50;;
44120;SDS011;29783;52.504;13.478;2023-03-14T16:10:04;2.53;;;0.40;;
44120;SDS011;29783;52.504;13.478;2023-03-14T16:12:31;1.73;;;0.50;;
44120;SDS011;29783;52.504;13.478;2023-03-14T16:14:57;4.07;;;0.82;;
44120;SDS011;29783;52.504;13.478;2023-03-14T16:17:23;3.10;;;0.65;;
44120;SDS011;29783;52.504;13.478;2023-03-14T16:19:50;2.88;;;0.75;;
44120;SDS011;29783;52.504;13.478;2023-03-14T16:22:16;1.85;;;0.45;;
44120;SDS011;29783;52.504;13.478;2023-03-14T16:24:42;1.15;;;0.50;;
44120;SDS011;29783;52.504;13.478;2023-03-14T16:27:08;0.80;;;0.45;;